sensor_id;sensor_type;location;lat;lon;timestamp;P1;durP1;ratioP1;P2;durP2;ratioP2
62479;SDS011;48526;48.846;2.322;2023-04-25T00:01:18;3.50;;;3.50;;
62479;SDS011;48526;48.846;2.322;2023-04-25T00:03:44;6.00;;;5.50;;
62479;SDS011;48526;48.846;2.322;2023-04-25T00:06:12;4.00;;;3.00;;
62479;SDS011;48526;48.846;2.322;2023-04-25T00:08:37;6.75;;;5.00;;
62479;SDS011;48526;48.846;2.322;2023-04-25T00:11:03;8.00;;;6.00;;
62479;SDS011;48526;48.846;2.322;2023-04-25T00:13:28;4.25;;;4.25;;
62479;SDS011;48526;48.846;2.322;2023-04-25T00:15:54;2.75;;;2.75;;
62479;SDS011;48526;48.846;2.322;2023-04-25T00:18:21;5.00;;;3.00;;
62479;SDS011;48526;48.846;2.322;2023-04-25T00:20:46;3.25;;;3.25;;
62479;SDS011;48526;48.846;2.322;2023-04-25T00:23:15;10.75;;;5.75;;
62479;SDS011;48526;48.846;2.322;2023-04-25T00:25:46;2.00;;;2.00;;
62479;SDS011;48526;48.846;2.322;2023-04-25T00:28:13;5.00;;;3.00;;
62479;SDS011;48526;48.846;2.322;2023-04-25T00:30:39;6.50;;;5.00;;
62479;SDS011;48526;48.846;2.322;2023-04-25T00:33:05;6.50;;;3.00;;
62479;SDS011;48526;48.846;2.322;2023-04-25T00:35:30;5.25;;;5.25;;
62479;SDS011;48526;48.846;2.322;2023-04-25T00:37:56;8.00;;;6.50;;
62479;SDS011;48526;48.846;2.322;2023-04-25T00:40:21;5.25;;;3.25;;
62479;SDS011;48526;48.846;2.322;2023-04-25T00:42:46;4.50;;;3.50;;
62479;SDS011;48526;48.846;2.322;2023-04-25T00:45:13;4.50;;;4.50;;
62479;SDS011;48526;48.846;2.322;2023-04-25T00:47:40;9.25;;;5.75;;
62479;SDS011;48526;48.846;2.322;2023-04-25T00:50:06;5.00;;;5.00;;
62479;SDS011;48526;48.846;2.322;2023-04-25T00:52:32;8.25;;;5.00;;
62479;SDS011;48526;48.846;2.322;2023-04-25T00:54:57;7.00;;;4.50;;
62479;SDS011;48526;48.846;2.322;2023-04-25T00:57:23;6.75;;;5.75;;
62479;SDS011;48526;48.846;2.322;2023-04-25T00:59:49;2.50;;;2.50;;
62479;SDS011;48526;48.846;2.322;2023-04-25T01:02:16;5.00;;;2.75;;
62479;SDS011;48526;48.846;2.322;2023-04-25T01:04:42;5.00;;;3.00;;
62479;SDS011;48526;48.846;2.322;2023-04-25T01:07:07;6.00;;;6.00;;
62479;SDS011;48526;48.846;2.322;2023-04-25T01:09:34;7.75;;;5.00;;
62479;SDS011;48526;48.846;2.322;2023-04-25T01:12:00;6.25;;;6.25;;
62479;SDS011;48526;48.846;2.322;2023-04-25T01:14:26;5.25;;;5.00;;
62479;SDS011;48526;48.846;2.322;2023-04-25T01:16:51;5.00;;;5.00;;
62479;SDS011;48526;48.846;2.322;2023-04-25T01:19:17;8.00;;;6.00;;
62479;SDS011;48526;48.846;2.322;2023-04-25T01:21:43;6.75;;;6.00;;
62479;SDS011;48526;48.846;2.322;2023-04-25T01:24:08;8.25;;;5.00;;
62479;SDS011;48526;48.846;2.322;2023-04-25T01:26:34;6.50;;;6.00;;
62479;SDS011;48526;48.846;2.322;2023-04-25T01:29:00;10.25;;;7.25;;
62479;SDS011;48526;48.846;2.322;2023-04-25T01:31:26;7.25;;;5.25;;
62479;SDS011;48526;48.846;2.322;2023-04-25T01:33:52;11.50;;;7.00;;
62479;SDS011;48526;48.846;2.322;2023-04-25T01:36:18;8.75;;;8.25;;
62479;SDS011;48526;48.846;2.322;2023-04-25T01:38:43;6.00;;;6.00;;
62479;SDS011;48526;48.846;2.322;2023-04-25T01:41:09;8.50;;;6.25;;
62479;SDS011;48526;48.846;2.322;2023-04-25T01:43:34;5.00;;;5.00;;
62479;SDS011;48526;48.846;2.322;2023-04-25T01:46:00;10.00;;;7.50;;
62479;SDS011;48526;48.846;2.322;2023-04-25T01:48:26;7.00;;;5.75;;
62479;SDS011;48526;48.846;2.322;2023-04-25T01:50:51;10.50;;;6.00;;
62479;SDS011;48526;48.846;2.322;2023-04-25T01:53:17;9.50;;;8.25;;
62479;SDS011;48526;48.846;2.322;2023-04-25T01:55:42;8.50;;;7.00;;
62479;SDS011;48526;48.846;2.322;2023-04-25T01:58:08;10.50;;;6.00;;
62479;SDS011;48526;48.846;2.322;2023-04-25T02:00:35;6.00;;;5.50;;
62479;SDS011;48526;48.846;2.322;2023-04-25T02:03:02;6.50;;;5.50;;
62479;SDS011;48526;48.846;2.322;2023-04-25T02:05:28;5.75;;;5.25;;
62479;SDS011;48526;48.846;2.322;2023-04-25T02:07:53;6.25;;;6.00;;
62479;SDS011;48526;48.846;2.322;2023-04-25T02:10:20;6.75;;;6.75;;
62479;SDS011;48526;48.846;2.322;2023-04-25T02:12:45;10.75;;;6.75;;
62479;SDS011;48526;48.846;2.322;2023-04-25T02:15:10;11.75;;;6.00;;
62479;SDS011;48526;48.846;2.322;2023-04-25T02:17:36;10.25;;;8.00;;
62479;SDS011;48526;48.846;2.322;2023-04-25T02:20:01;5.25;;;2.50;;
62479;SDS011;48526;48.846;2.322;2023-04-25T02:22:27;8.00;;;7.25;;
62479;SDS011;48526;48.846;2.322;2023-04-25T02:24:55;8.50;;;8.25;;
62479;SDS011;48526;48.846;2.322;2023-04-25T02:27:20;8.50;;;6.00;;
62479;SDS011;48526;48.846;2.322;2023-04-25T02:29:46;7.75;;;6.00;;
62479;SDS011;48526;48.846;2.322;2023-04-25T02:32:11;10.25;;;7.75;;
62479;SDS011;48526;48.846;2.322;2023-04-25T02:34:36;11.50;;;9.25;;
62479;SDS011;48526;48.846;2.322;2023-04-25T02:37:02;8.00;;;6.75;;
62479;SDS011;48526;48.846;2.322;2023-04-25T02:39:27;10.00;;;8.25;;
62479;SDS011;48526;48.846;2.322;2023-04-25T02:41:53;7.75;;;6.00;;
62479;SDS011;48526;48.846;2.322;2023-04-25T02:44:18;9.50;;;7.50;;
62479;SDS011;48526;48.846;2.322;2023-04-25T02:46:43;12.00;;;9.00;;
62479;SDS011;48526;48.846;2.322;2023-04-25T02:49:09;6.50;;;6.25;;
62479;SDS011;48526;48.846;2.322;2023-04-25T02:51:34;9.00;;;7.00;;
62479;SDS011;48526;48.846;2.322;2023-04-25T02:54:00;13.00;;;9.75;;
62479;SDS011;48526;48.846;2.322;2023-04-25T02:56:25;7.75;;;4.50;;
62479;SDS011;48526;48.846;2.322;2023-04-25T02:58:51;9.75;;;8.75;;
62479;SDS011;48526;48.846;2.322;2023-04-25T03:01:16;9.00;;;6.75;;
62479;SDS011;48526;48.846;2.322;2023-04-25T03:03:42;9.25;;;6.75;;
62479;SDS011;48526;48.846;2.322;2023-04-25T03:06:07;10.00;;;9.00;;
62479;SDS011;48526;48.846;2.322;2023-04-25T03:08:32;12.00;;;9.50;;
62479;SDS011;48526;48.846;2.322;2023-04-25T03:10:59;11.75;;;7.00;;
62479;SDS011;48526;48.846;2.322;2023-04-25T03:13:24;7.00;;;7.00;;
62479;SDS011;48526;48.846;2.322;2023-04-25T03:15:50;11.50;;;7.50;;
62479;SDS011;48526;48.846;2.322;2023-04-25T03:18:16;12.25;;;7.25;;
62479;SDS011;48526;48.846;2.322;2023-04-25T03:20:41;11.50;;;9.00;;
62479;SDS011;48526;48.846;2.322;2023-04-25T03:23:09;10.00;;;8.75;;
62479;SDS011;48526;48.846;2.322;2023-04-25T03:25:34;9.25;;;8.75;;
62479;SDS011;48526;48.846;2.322;2023-04-25T03:27:59;14.50;;;11.00;;
62479;SDS011;48526;48.846;2.322;2023-04-25T03:30:25;13.25;;;8.25;;
62479;SDS011;48526;48.846;2.322;2023-04-25T03:32:50;9.50;;;8.00;;
62479;SDS011;48526;48.846;2.322;2023-04-25T03:35:16;11.50;;;10.00;;
62479;SDS011;48526;48.846;2.322;2023-04-25T03:37:41;12.50;;;10.00;;
62479;SDS011;48526;48.846;2.322;2023-04-25T03:40:10;7.25;;;7.25;;
62479;SDS011;48526;48.846;2.322;2023-04-25T03:42:36;13.25;;;10.50;;
62479;SDS011;48526;48.846;2.322;2023-04-25T03:45:01;11.25;;;11.00;;
62479;SDS011;48526;48.846;2.322;2023-04-25T03:47:26;10.50;;;9.00;;
62479;SDS011;48526;48.846;2.322;2023-04-25T03:49:52;9.75;;;9.00;;
62479;SDS011;48526;48.846;2.322;2023-04-25T03:52:17;9.50;;;6.50;;
62479;SDS011;48526;48.846;2.322;2023-04-25T03:54:43;11.25;;;11.25;;
62479;SDS011;48526;48.846;2.322;2023-04-25T03:57:08;10.75;;;9.75;;
62479;SDS011;48526;48.846;2.322;2023-04-25T03:59:34;11.25;;;8.00;;
62479;SDS011;48526;48.846;2.322;2023-04-25T04:01:59;8.75;;;8.75;;
62479;SDS011;48526;48.846;2.322;2023-04-25T04:04:25;12.50;;;9.50;;
62479;SDS011;48526;48.846;2.322;2023-04-25T04:06:50;12.25;;;10.25;;
62479;SDS011;48526;48.846;2.322;2023-04-25T04:09:17;9.00;;;9.00;;
62479;SDS011;48526;48.846;2.322;2023-04-25T04:11:42;9.75;;;7.75;;
62479;SDS011;48526;48.846;2.322;2023-04-25T04:14:08;10.25;;;10.25;;
62479;SDS011;48526;48.846;2.322;2023-04-25T04:16:35;7.50;;;6.75;;
62479;SDS011;48526;48.846;2.322;2023-04-25T04:19:00;12.25;;;9.50;;
62479;SDS011;48526;48.846;2.322;2023-04-25T04:21:26;11.00;;;8.25;;
62479;SDS011;48526;48.846;2.322;2023-04-25T04:23:52;16.50;;;9.00;;
62479;SDS011;48526;48.846;2.322;2023-04-25T04:26:17;10.00;;;7.00;;
62479;SDS011;48526;48.846;2.322;2023-04-25T04:28:43;12.50;;;9.75;;
62479;SDS011;48526;48.846;2.322;2023-04-25T04:31:11;10.75;;;6.25;;
62479;SDS011;48526;48.846;2.322;2023-04-25T04:33:36;11.75;;;9.50;;
62479;SDS011;48526;48.846;2.322;2023-04-25T04:36:02;10.50;;;9.75;;
62479;SDS011;48526;48.846;2.322;2023-04-25T04:38:28;12.00;;;9.00;;
62479;SDS011;48526;48.846;2.322;2023-04-25T04:40:55;10.25;;;8.75;;
62479;SDS011;48526;48.846;2.322;2023-04-25T04:43:21;11.00;;;9.75;;
62479;SDS011;48526;48.846;2.322;2023-04-25T04:45:47;8.00;;;8.00;;
62479;SDS011;48526;48.846;2.322;2023-04-25T04:48:14;13.50;;;10.00;;
62479;SDS011;48526;48.846;2.322;2023-04-25T04:50:40;10.25;;;10.00;;
62479;SDS011;48526;48.846;2.322;2023-04-25T04:53:06;13.25;;;8.75;;
62479;SDS011;48526;48.846;2.322;2023-04-25T04:55:32;12.50;;;9.25;;
62479;SDS011;48526;48.846;2.322;2023-04-25T04:57:57;12.00;;;8.50;;
62479;SDS011;48526;48.846;2.322;2023-04-25T05:00:22;10.25;;;10.25;;
62479;SDS011;48526;48.846;2.322;2023-04-25T05:02:48;13.00;;;11.50;;
62479;SDS011;48526;48.846;2.322;2023-04-25T05:05:13;12.50;;;10.25;;
62479;SDS011;48526;48.846;2.322;2023-04-25T05:07:39;11.00;;;10.25;;
62479;SDS011;48526;48.846;2.322;2023-04-25T05:10:04;13.00;;;11.50;;
62479;SDS011;48526;48.846;2.322;2023-04-25T05:12:30;14.75;;;10.50;;
62479;SDS011;48526;48.846;2.322;2023-04-25T05:14:55;14.75;;;10.50;;
62479;SDS011;48526;48.846;2.322;2023-04-25T05:17:21;9.00;;;9.00;;
62479;SDS011;48526;48.846;2.322;2023-04-25T05:19:46;20.50;;;12.75;;
62479;SDS011;48526;48.846;2.322;2023-04-25T05:22:11;12.75;;;10.50;;
62479;SDS011;48526;48.846;2.322;2023-04-25T05:24:37;14.75;;;11.00;;
62479;SDS011;48526;48.846;2.322;2023-04-25T05:27:02;10.00;;;10.00;;
62479;SDS011;48526;48.846;2.322;2023-04-25T05:29:28;11.75;;;11.00;;
62479;SDS011;48526;48.846;2.322;2023-04-25T05:31:54;12.00;;;10.00;;
62479;SDS011;48526;48.846;2.322;2023-04-25T05:34:19;14.50;;;10.25;;
62479;SDS011;48526;48.846;2.322;2023-04-25T05:36:45;15.50;;;13.00;;
62479;SDS011;48526;48.846;2.322;2023-04-25T05:39:13;10.50;;;6.25;;
62479;SDS011;48526;48.846;2.322;2023-04-25T05:41:39;14.50;;;11.25;;
62479;SDS011;48526;48.846;2.322;2023-04-25T05:44:04;12.25;;;10.25;;
62479;SDS011;48526;48.846;2.322;2023-04-25T05:46:30;18.25;;;13.00;;
62479;SDS011;48526;48.846;2.322;2023-04-25T05:48:55;15.00;;;13.50;;
62479;SDS011;48526;48.846;2.322;2023-04-25T05:51:21;15.75;;;11.25;;
62479;SDS011;48526;48.846;2.322;2023-04-25T05:53:46;14.75;;;12.50;;
62479;SDS011;48526;48.846;2.322;2023-04-25T05:56:11;16.00;;;12.00;;
62479;SDS011;48526;48.846;2.322;2023-04-25T05:58:38;18.50;;;13.50;;
62479;SDS011;48526;48.846;2.322;2023-04-25T06:01:03;15.50;;;12.00;;
62479;SDS011;48526;48.846;2.322;2023-04-25T06:03:29;12.25;;;9.00;;
62479;SDS011;48526;48.846;2.322;2023-04-25T06:05:55;21.50;;;15.25;;
62479;SDS011;48526;48.846;2.322;2023-04-25T06:08:20;16.25;;;13.00;;
62479;SDS011;48526;48.846;2.322;2023-04-25T06:10:46;17.00;;;15.00;;
62479;SDS011;48526;48.846;2.322;2023-04-25T06:13:11;16.25;;;14.75;;
62479;SDS011;48526;48.846;2.322;2023-04-25T06:15:36;21.00;;;16.00;;
62479;SDS011;48526;48.846;2.322;2023-04-25T06:18:02;18.50;;;15.00;;
62479;SDS011;48526;48.846;2.322;2023-04-25T06:20:27;17.00;;;15.00;;
62479;SDS011;48526;48.846;2.322;2023-04-25T06:22:52;20.25;;;15.25;;
62479;SDS011;48526;48.846;2.322;2023-04-25T06:25:18;18.25;;;12.75;;
62479;SDS011;48526;48.846;2.322;2023-04-25T06:27:44;13.00;;;11.75;;
62479;SDS011;48526;48.846;2.322;2023-04-25T06:30:09;16.75;;;14.25;;
62479;SDS011;48526;48.846;2.322;2023-04-25T06:32:37;17.75;;;11.50;;
62479;SDS011;48526;48.846;2.322;2023-04-25T06:35:02;13.00;;;11.25;;
62479;SDS011;48526;48.846;2.322;2023-04-25T06:37:28;16.75;;;14.75;;
62479;SDS011;48526;48.846;2.322;2023-04-25T06:39:54;12.25;;;11.75;;
62479;SDS011;48526;48.846;2.322;2023-04-25T06:42:19;19.50;;;15.25;;
62479;SDS011;48526;48.846;2.322;2023-04-25T06:44:44;13.25;;;12.00;;
62479;SDS011;48526;48.846;2.322;2023-04-25T06:47:10;14.00;;;11.75;;
62479;SDS011;48526;48.846;2.322;2023-04-25T06:49:35;10.50;;;10.25;;
62479;SDS011;48526;48.846;2.322;2023-04-25T06:52:01;12.75;;;10.00;;
62479;SDS011;48526;48.846;2.322;2023-04-25T06:54:26;10.75;;;8.00;;
62479;SDS011;48526;48.846;2.322;2023-04-25T06:56:54;12.50;;;8.00;;
62479;SDS011;48526;48.846;2.322;2023-04-25T06:59:19;8.00;;;7.75;;
62479;SDS011;48526;48.846;2.322;2023-04-25T07:01:45;11.25;;;7.25;;
62479;SDS011;48526;48.846;2.322;2023-04-25T07:04:10;8.00;;;7.50;;
62479;SDS011;48526;48.846;2.322;2023-04-25T07:06:36;13.75;;;11.00;;
62479;SDS011;48526;48.846;2.322;2023-04-25T07:09:07;13.50;;;12.00;;
62479;SDS011;48526;48.846;2.322;2023-04-25T07:11:33;7.75;;;7.50;;
62479;SDS011;48526;48.846;2.322;2023-04-25T07:13:59;12.00;;;9.25;;
62479;SDS011;48526;48.846;2.322;2023-04-25T07:16:24;21.75;;;13.50;;
62479;SDS011;48526;48.846;2.322;2023-04-25T07:18:50;18.50;;;15.75;;
62479;SDS011;48526;48.846;2.322;2023-04-25T07:21:15;15.00;;;14.50;;
62479;SDS011;48526;48.846;2.322;2023-04-25T07:23:40;16.25;;;16.00;;
62479;SDS011;48526;48.846;2.322;2023-04-25T07:26:06;21.75;;;20.50;;
62479;SDS011;48526;48.846;2.322;2023-04-25T07:28:31;35.75;;;30.50;;
62479;SDS011;48526;48.846;2.322;2023-04-25T07:30:57;31.00;;;26.25;;
62479;SDS011;48526;48.846;2.322;2023-04-25T07:33:23;21.25;;;17.50;;
62479;SDS011;48526;48.846;2.322;2023-04-25T07:35:48;22.25;;;18.25;;
62479;SDS011;48526;48.846;2.322;2023-04-25T07:38:13;26.25;;;22.00;;
62479;SDS011;48526;48.846;2.322;2023-04-25T07:40:39;21.50;;;16.75;;
62479;SDS011;48526;48.846;2.322;2023-04-25T07:43:04;19.00;;;18.75;;
62479;SDS011;48526;48.846;2.322;2023-04-25T07:45:30;24.00;;;17.25;;
62479;SDS011;48526;48.846;2.322;2023-04-25T07:47:55;18.50;;;15.25;;
62479;SDS011;48526;48.846;2.322;2023-04-25T07:50:20;21.25;;;17.25;;
62479;SDS011;48526;48.846;2.322;2023-04-25T07:52:46;23.25;;;18.75;;
62479;SDS011;48526;48.846;2.322;2023-04-25T07:55:11;27.50;;;19.75;;
62479;SDS011;48526;48.846;2.322;2023-04-25T07:57:37;18.00;;;17.00;;
62479;SDS011;48526;48.846;2.322;2023-04-25T08:00:03;15.00;;;12.00;;
62479;SDS011;48526;48.846;2.322;2023-04-25T08:02:29;18.00;;;15.75;;
62479;SDS011;48526;48.846;2.322;2023-04-25T08:04:55;14.25;;;11.50;;
62479;SDS011;48526;48.846;2.322;2023-04-25T08:07:20;17.75;;;10.25;;
62479;SDS011;48526;48.846;2.322;2023-04-25T08:09:46;16.50;;;15.75;;
62479;SDS011;48526;48.846;2.322;2023-04-25T08:12:11;11.75;;;9.75;;
62479;SDS011;48526;48.846;2.322;2023-04-25T08:14:36;19.50;;;15.50;;
62479;SDS011;48526;48.846;2.322;2023-04-25T08:17:02;15.50;;;15.50;;
62479;SDS011;48526;48.846;2.322;2023-04-25T08:19:30;17.25;;;16.50;;
62479;SDS011;48526;48.846;2.322;2023-04-25T08:21:56;21.25;;;14.25;;
62479;SDS011;48526;48.846;2.322;2023-04-25T08:24:22;21.75;;;17.25;;
62479;SDS011;48526;48.846;2.322;2023-04-25T08:26:48;19.00;;;16.75;;
62479;SDS011;48526;48.846;2.322;2023-04-25T08:29:13;17.00;;;16.75;;
62479;SDS011;48526;48.846;2.322;2023-04-25T08:31:39;24.00;;;14.25;;
62479;SDS011;48526;48.846;2.322;2023-04-25T08:34:05;12.00;;;11.25;;
62479;SDS011;48526;48.846;2.322;2023-04-25T08:36:30;14.50;;;10.75;;
62479;SDS011;48526;48.846;2.322;2023-04-25T08:38:56;17.25;;;13.25;;
62479;SDS011;48526;48.846;2.322;2023-04-25T08:41:21;17.50;;;12.50;;
62479;SDS011;48526;48.846;2.322;2023-04-25T08:43:48;11.00;;;8.25;;
62479;SDS011;48526;48.846;2.322;2023-04-25T08:46:13;18.00;;;11.00;;
62479;SDS011;48526;48.846;2.322;2023-04-25T08:48:42;16.25;;;12.75;;
62479;SDS011;48526;48.846;2.322;2023-04-25T08:51:10;15.00;;;13.00;;
62479;SDS011;48526;48.846;2.322;2023-04-25T08:53:41;15.25;;;12.00;;
62479;SDS011;48526;48.846;2.322;2023-04-25T08:56:07;14.75;;;11.75;;
62479;SDS011;48526;48.846;2.322;2023-04-25T08:58:34;17.75;;;13.25;;
62479;SDS011;48526;48.846;2.322;2023-04-25T09:00:59;17.25;;;12.75;;
62479;SDS011;48526;48.846;2.322;2023-04-25T09:03:25;16.75;;;12.25;;
62479;SDS011;48526;48.846;2.322;2023-04-25T09:05:50;17.75;;;17.00;;
62479;SDS011;48526;48.846;2.322;2023-04-25T09:08:16;17.25;;;13.25;;
62479;SDS011;48526;48.846;2.322;2023-04-25T09:10:41;16.25;;;16.00;;
62479;SDS011;48526;48.846;2.322;2023-04-25T09:13:11;17.75;;;12.25;;
62479;SDS011;48526;48.846;2.322;2023-04-25T09:15:50;13.75;;;12.75;;
62479;SDS011;48526;48.846;2.322;2023-04-25T09:20:56;17.75;;;13.50;;
62479;SDS011;48526;48.846;2.322;2023-04-25T09:23:22;18.50;;;14.25;;
62479;SDS011;48526;48.846;2.322;2023-04-25T09:25:48;15.50;;;12.50;;
62479;SDS011;48526;48.846;2.322;2023-04-25T09:28:15;13.00;;;10.50;;
62479;SDS011;48526;48.846;2.322;2023-04-25T09:30:41;18.00;;;12.25;;
62479;SDS011;48526;48.846;2.322;2023-04-25T09:33:07;11.75;;;11.00;;
62479;SDS011;48526;48.846;2.322;2023-04-25T09:40:38;12.75;;;11.75;;
62479;SDS011;48526;48.846;2.322;2023-04-25T09:43:08;13.00;;;10.50;;
62479;SDS011;48526;48.846;2.322;2023-04-25T09:45:40;11.25;;;11.25;;
62479;SDS011;48526;48.846;2.322;2023-04-25T09:48:06;14.75;;;12.25;;
62479;SDS011;48526;48.846;2.322;2023-04-25T09:50:32;19.00;;;18.50;;
62479;SDS011;48526;48.846;2.322;2023-04-25T09:53:04;12.00;;;11.00;;
62479;SDS011;48526;48.846;2.322;2023-04-25T09:55:31;12.00;;;10.75;;
62479;SDS011;48526;48.846;2.322;2023-04-25T09:57:57;10.00;;;8.75;;
62479;SDS011;48526;48.846;2.322;2023-04-25T10:00:29;10.75;;;9.00;;
62479;SDS011;48526;48.846;2.322;2023-04-25T10:02:55;14.75;;;13.00;;
62479;SDS011;48526;48.846;2.322;2023-04-25T10:05:22;10.00;;;10.00;;
62479;SDS011;48526;48.846;2.322;2023-04-25T10:07:49;13.50;;;11.50;;
62479;SDS011;48526;48.846;2.322;2023-04-25T10:10:15;13.00;;;12.00;;
62479;SDS011;48526;48.846;2.322;2023-04-25T10:12:41;16.50;;;11.50;;
62479;SDS011;48526;48.846;2.322;2023-04-25T10:15:08;8.75;;;8.75;;
62479;SDS011;48526;48.846;2.322;2023-04-25T10:17:34;8.00;;;7.00;;
62479;SDS011;48526;48.846;2.322;2023-04-25T10:20:03;9.25;;;8.25;;
62479;SDS011;48526;48.846;2.322;2023-04-25T10:22:34;11.50;;;9.25;;
62479;SDS011;48526;48.846;2.322;2023-04-25T10:25:02;10.25;;;9.25;;
62479;SDS011;48526;48.846;2.322;2023-04-25T10:27:31;14.00;;;13.75;;
62479;SDS011;48526;48.846;2.322;2023-04-25T10:30:00;19.75;;;13.50;;
62479;SDS011;48526;48.846;2.322;2023-04-25T10:32:30;12.50;;;9.25;;
62479;SDS011;48526;48.846;2.322;2023-04-25T10:34:56;10.25;;;9.50;;
62479;SDS011;48526;48.846;2.322;2023-04-25T10:37:22;13.25;;;10.50;;
62479;SDS011;48526;48.846;2.322;2023-04-25T10:39:47;11.00;;;8.75;;
62479;SDS011;48526;48.846;2.322;2023-04-25T10:42:12;15.00;;;9.75;;
62479;SDS011;48526;48.846;2.322;2023-04-25T10:44:38;10.75;;;8.75;;
62479;SDS011;48526;48.846;2.322;2023-04-25T10:47:07;13.25;;;8.75;;
62479;SDS011;48526;48.846;2.322;2023-04-25T10:49:33;9.25;;;9.25;;
62479;SDS011;48526;48.846;2.322;2023-04-25T10:54:52;11.00;;;9.25;;
62479;SDS011;48526;48.846;2.322;2023-04-25T10:57:27;9.75;;;8.75;;
62479;SDS011;48526;48.846;2.322;2023-04-25T11:00:13;7.00;;;5.25;;
62479;SDS011;48526;48.846;2.322;2023-04-25T11:02:47;3.50;;;3.50;;
62479;SDS011;48526;48.846;2.322;2023-04-25T11:05:29;7.75;;;6.00;;
62479;SDS011;48526;48.846;2.322;2023-04-25T11:08:00;10.00;;;5.25;;
62479;SDS011;48526;48.846;2.322;2023-04-25T11:10:26;7.50;;;6.00;;
62479;SDS011;48526;48.846;2.322;2023-04-25T11:12:52;8.00;;;6.00;;
62479;SDS011;48526;48.846;2.322;2023-04-25T11:15:18;9.00;;;7.00;;
62479;SDS011;48526;48.846;2.322;2023-04-25T11:17:43;7.50;;;7.00;;
62479;SDS011;48526;48.846;2.322;2023-04-25T11:20:11;10.00;;;6.00;;
62479;SDS011;48526;48.846;2.322;2023-04-25T11:22:38;4.50;;;4.25;;
62479;SDS011;48526;48.846;2.322;2023-04-25T11:25:06;8.50;;;8.50;;
62479;SDS011;48526;48.846;2.322;2023-04-25T11:27:32;8.00;;;7.50;;
62479;SDS011;48526;48.846;2.322;2023-04-25T11:29:58;7.00;;;5.50;;
62479;SDS011;48526;48.846;2.322;2023-04-25T11:32:23;9.50;;;7.00;;
62479;SDS011;48526;48.846;2.322;2023-04-25T11:34:49;8.00;;;8.00;;
62479;SDS011;48526;48.846;2.322;2023-04-25T11:37:15;8.50;;;7.00;;
62479;SDS011;48526;48.846;2.322;2023-04-25T11:39:44;12.25;;;8.25;;
62479;SDS011;48526;48.846;2.322;2023-04-25T11:42:14;3.75;;;3.75;;
62479;SDS011;48526;48.846;2.322;2023-04-25T11:44:46;10.75;;;8.50;;
62479;SDS011;48526;48.846;2.322;2023-04-25T11:47:12;5.00;;;5.00;;
62479;SDS011;48526;48.846;2.322;2023-04-25T11:49:37;8.75;;;5.50;;
62479;SDS011;48526;48.846;2.322;2023-04-25T11:52:02;8.75;;;8.25;;
62479;SDS011;48526;48.846;2.322;2023-04-25T11:54:28;6.50;;;6.50;;
62479;SDS011;48526;48.846;2.322;2023-04-25T11:56:53;7.50;;;7.50;;
62479;SDS011;48526;48.846;2.322;2023-04-25T11:59:22;10.25;;;7.00;;
62479;SDS011;48526;48.846;2.322;2023-04-25T12:01:49;8.50;;;8.50;;
62479;SDS011;48526;48.846;2.322;2023-04-25T12:04:16;3.50;;;3.00;;
62479;SDS011;48526;48.846;2.322;2023-04-25T12:06:42;10.50;;;7.00;;
62479;SDS011;48526;48.846;2.322;2023-04-25T12:09:10;10.00;;;8.50;;
62479;SDS011;48526;48.846;2.322;2023-04-25T12:11:46;10.00;;;7.50;;
62479;SDS011;48526;48.846;2.322;2023-04-25T12:14:20;8.25;;;8.25;;
62479;SDS011;48526;48.846;2.322;2023-04-25T12:16:47;14.00;;;10.00;;
62479;SDS011;48526;48.846;2.322;2023-04-25T12:19:13;9.25;;;7.00;;
62479;SDS011;48526;48.846;2.322;2023-04-25T12:21:42;7.00;;;7.00;;
62479;SDS011;48526;48.846;2.322;2023-04-25T12:24:15;10.00;;;8.00;;
62479;SDS011;48526;48.846;2.322;2023-04-25T12:26:51;8.75;;;8.00;;
62479;SDS011;48526;48.846;2.322;2023-04-25T12:29:28;11.50;;;8.25;;
62479;SDS011;48526;48.846;2.322;2023-04-25T12:31:55;10.25;;;7.00;;
62479;SDS011;48526;48.846;2.322;2023-04-25T12:34:20;9.25;;;9.00;;
62479;SDS011;48526;48.846;2.322;2023-04-25T12:36:47;12.00;;;8.25;;
62479;SDS011;48526;48.846;2.322;2023-04-25T12:39:16;7.50;;;7.50;;
62479;SDS011;48526;48.846;2.322;2023-04-25T12:41:43;5.00;;;5.00;;
62479;SDS011;48526;48.846;2.322;2023-04-25T12:44:09;11.50;;;7.75;;
62479;SDS011;48526;48.846;2.322;2023-04-25T12:46:35;10.00;;;9.00;;
62479;SDS011;48526;48.846;2.322;2023-04-25T12:49:00;10.00;;;7.00;;
62479;SDS011;48526;48.846;2.322;2023-04-25T12:51:26;9.75;;;8.25;;
62479;SDS011;48526;48.846;2.322;2023-04-25T12:53:52;11.50;;;9.00;;
62479;SDS011;48526;48.846;2.322;2023-04-25T12:56:18;9.50;;;8.50;;
62479;SDS011;48526;48.846;2.322;2023-04-25T12:58:43;5.25;;;5.25;;
62479;SDS011;48526;48.846;2.322;2023-04-25T13:01:09;12.50;;;8.25;;
62479;SDS011;48526;48.846;2.322;2023-04-25T13:03:34;8.50;;;8.00;;
62479;SDS011;48526;48.846;2.322;2023-04-25T13:06:00;11.25;;;8.00;;
62479;SDS011;48526;48.846;2.322;2023-04-25T13:08:25;10.00;;;9.00;;
62479;SDS011;48526;48.846;2.322;2023-04-25T13:10:51;12.25;;;4.75;;
62479;SDS011;48526;48.846;2.322;2023-04-25T13:13:16;9.00;;;6.50;;
62479;SDS011;48526;48.846;2.322;2023-04-25T13:15:42;9.00;;;7.50;;
62479;SDS011;48526;48.846;2.322;2023-04-25T13:18:07;9.25;;;8.75;;
62479;SDS011;48526;48.846;2.322;2023-04-25T13:20:32;8.00;;;8.00;;
62479;SDS011;48526;48.846;2.322;2023-04-25T13:22:58;8.50;;;8.00;;
62479;SDS011;48526;48.846;2.322;2023-04-25T13:25:23;9.50;;;9.50;;
62479;SDS011;48526;48.846;2.322;2023-04-25T13:27:49;11.00;;;11.00;;
62479;SDS011;48526;48.846;2.322;2023-04-25T13:30:15;10.00;;;8.00;;
62479;SDS011;48526;48.846;2.322;2023-04-25T13:32:40;10.50;;;9.25;;
62479;SDS011;48526;48.846;2.322;2023-04-25T13:35:06;11.50;;;7.00;;
62479;SDS011;48526;48.846;2.322;2023-04-25T13:37:34;9.25;;;7.75;;
62479;SDS011;48526;48.846;2.322;2023-04-25T13:40:00;9.25;;;8.00;;
62479;SDS011;48526;48.846;2.322;2023-04-25T13:42:27;11.50;;;9.00;;
62479;SDS011;48526;48.846;2.322;2023-04-25T13:44:53;9.00;;;9.00;;
62479;SDS011;48526;48.846;2.322;2023-04-25T13:47:18;8.75;;;7.50;;
62479;SDS011;48526;48.846;2.322;2023-04-25T13:49:44;8.75;;;8.75;;
62479;SDS011;48526;48.846;2.322;2023-04-25T13:52:09;7.00;;;5.00;;
62479;SDS011;48526;48.846;2.322;2023-04-25T13:54:34;9.75;;;5.00;;
62479;SDS011;48526;48.846;2.322;2023-04-25T13:57:00;8.25;;;8.00;;
62479;SDS011;48526;48.846;2.322;2023-04-25T13:59:26;9.75;;;9.00;;
62479;SDS011;48526;48.846;2.322;2023-04-25T14:01:52;6.00;;;5.25;;
62479;SDS011;48526;48.846;2.322;2023-04-25T14:04:17;13.25;;;10.25;;
62479;SDS011;48526;48.846;2.322;2023-04-25T14:06:43;5.75;;;5.75;;
62479;SDS011;48526;48.846;2.322;2023-04-25T14:09:08;8.00;;;7.50;;
62479;SDS011;48526;48.846;2.322;2023-04-25T14:11:36;9.50;;;8.00;;
62479;SDS011;48526;48.846;2.322;2023-04-25T14:14:01;9.00;;;8.75;;
62479;SDS011;48526;48.846;2.322;2023-04-25T14:16:27;9.00;;;7.25;;
62479;SDS011;48526;48.846;2.322;2023-04-25T14:18:53;9.00;;;9.00;;
62479;SDS011;48526;48.846;2.322;2023-04-25T14:21:19;8.00;;;8.00;;
62479;SDS011;48526;48.846;2.322;2023-04-25T14:23:46;9.75;;;5.25;;
62479;SDS011;48526;48.846;2.322;2023-04-25T14:26:11;7.50;;;7.50;;
62479;SDS011;48526;48.846;2.322;2023-04-25T14:28:37;7.25;;;4.75;;
62479;SDS011;48526;48.846;2.322;2023-04-25T14:31:03;9.00;;;8.25;;
62479;SDS011;48526;48.846;2.322;2023-04-25T14:33:29;9.25;;;8.75;;
62479;SDS011;48526;48.846;2.322;2023-04-25T14:35:55;8.00;;;7.75;;
62479;SDS011;48526;48.846;2.322;2023-04-25T14:38:20;8.00;;;8.00;;
62479;SDS011;48526;48.846;2.322;2023-04-25T14:40:48;5.00;;;5.00;;